sensor_id;sensor_type;location;lat;lon;timestamp;P1;durP1;ratioP1;P2;durP2;ratioP2
62014;SDS011;47970;52.396;9.586;2023-03-11T00:00:46;5.78;;;3.42;;
62014;SDS011;47970;52.396;9.586;2023-03-11T00:03:13;8.60;;;6.28;;
62014;SDS011;47970;52.396;9.586;2023-03-11T00:05:39;12.00;;;6.05;;
62014;SDS011;47970;52.396;9.586;2023-03-11T00:08:05;7.05;;;4.28;;
62014;SDS011;47970;52.396;9.586;2023-03-11T00:10:32;8.63;;;4.70;;
62014;SDS011;47970;52.396;9.586;2023-03-11T00:12:58;6.57;;;3.13;;
62014;SDS011;47970;52.396;9.586;2023-03-11T00:15:24;10.13;;;5.22;;
62014;SDS011;47970;52.396;9.586;2023-03-11T00:17:49;9.30;;;5.75;;
62014;SDS011;47970;52.396;9.586;2023-03-11T00:20:17;8.55;;;6.03;;
62014;SDS011;47970;52.396;9.586;2023-03-11T00:22:42;3.72;;;2.20;;
62014;SDS011;47970;52.396;9.586;2023-03-11T00:25:08;3.20;;;2.33;;
62014;SDS011;47970;52.396;9.586;2023-03-11T00:27:34;3.90;;;2.58;;
62014;SDS011;47970;52.396;9.586;2023-03-11T00:30:01;6.05;;;3.42;;
62014;SDS011;47970;52.396;9.586;2023-03-11T00:32:26;4.78;;;2.78;;
62014;SDS011;47970;52.396;9.586;2023-03-11T00:34:51;6.97;;;3.43;;
62014;SDS011;47970;52.396;9.586;2023-03-11T00:37:16;3.23;;;2.20;;
62014;SDS011;47970;52.396;9.586;2023-03-11T00:39:41;3.03;;;1.53;;
62014;SDS011;47970;52.396;9.586;2023-03-11T00:42:07;6.77;;;3.93;;
62014;SDS011;47970;52.396;9.586;2023-03-11T00:44:32;5.47;;;3.10;;
62014;SDS011;47970;52.396;9.586;2023-03-11T00:46:57;6.67;;;3.57;;
62014;SDS011;47970;52.396;9.586;2023-03-11T00:49:22;2.08;;;1.17;;
62014;SDS011;47970;52.396;9.586;2023-03-11T00:51:47;4.32;;;2.58;;
62014;SDS011;47970;52.396;9.586;2023-03-11T00:54:13;2.20;;;1.23;;
62014;SDS011;47970;52.396;9.586;2023-03-11T00:56:38;2.53;;;1.65;;
62014;SDS011;47970;52.396;9.586;2023-03-11T00:59:03;2.40;;;1.33;;
62014;SDS011;47970;52.396;9.586;2023-03-11T01:01:28;1.60;;;1.10;;
62014;SDS011;47970;52.396;9.586;2023-03-11T01:03:54;2.23;;;1.60;;
62014;SDS011;47970;52.396;9.586;2023-03-11T01:06:19;0.93;;;0.80;;
62014;SDS011;47970;52.396;9.586;2023-03-11T01:08:44;3.13;;;1.60;;
62014;SDS011;47970;52.396;9.586;2023-03-11T01:11:09;3.57;;;1.40;;
62014;SDS011;47970;52.396;9.586;2023-03-11T01:13:35;5.80;;;2.90;;
62014;SDS011;47970;52.396;9.586;2023-03-11T01:16:00;4.85;;;1.20;;
62014;SDS011;47970;52.396;9.586;2023-03-11T01:18:25;3.53;;;1.77;;
62014;SDS011;47970;52.396;9.586;2023-03-11T01:20:51;3.42;;;1.00;;
62014;SDS011;47970;52.396;9.586;2023-03-11T01:23:16;1.50;;;1.15;;
62014;SDS011;47970;52.396;9.586;2023-03-11T01:25:42;5.78;;;1.77;;
62014;SDS011;47970;52.396;9.586;2023-03-11T01:28:07;1.75;;;1.02;;
62014;SDS011;47970;52.396;9.586;2023-03-11T01:30:33;2.72;;;1.63;;
62014;SDS011;47970;52.396;9.586;2023-03-11T01:32:59;2.88;;;1.80;;
62014;SDS011;47970;52.396;9.586;2023-03-11T01:35:25;7.53;;;1.63;;
62014;SDS011;47970;52.396;9.586;2023-03-11T01:37:51;3.63;;;1.98;;
62014;SDS011;47970;52.396;9.586;2023-03-11T01:40:37;5.90;;;1.48;;
62014;SDS011;47970;52.396;9.586;2023-03-11T01:43:03;5.80;;;1.95;;
62014;SDS011;47970;52.396;9.586;2023-03-11T01:45:40;3.70;;;2.08;;
62014;SDS011;47970;52.396;9.586;2023-03-11T01:48:06;1.33;;;1.17;;
62014;SDS011;47970;52.396;9.586;2023-03-11T01:50:37;1.98;;;1.00;;
62014;SDS011;47970;52.396;9.586;2023-03-11T01:53:04;3.58;;;1.77;;
62014;SDS011;47970;52.396;9.586;2023-03-11T01:55:30;4.10;;;2.35;;
62014;SDS011;47970;52.396;9.586;2023-03-11T01:57:55;3.60;;;2.20;;
62014;SDS011;47970;52.396;9.586;2023-03-11T02:00:21;1.17;;;1.08;;
62014;SDS011;47970;52.396;9.586;2023-03-11T02:02:50;3.25;;;1.63;;
62014;SDS011;47970;52.396;9.586;2023-03-11T02:07:41;2.28;;;1.45;;
62014;SDS011;47970;52.396;9.586;2023-03-11T02:10:06;4.07;;;2.00;;
62014;SDS011;47970;52.396;9.586;2023-03-11T02:12:33;3.10;;;1.75;;
62014;SDS011;47970;52.396;9.586;2023-03-11T02:14:59;2.25;;;1.20;;
62014;SDS011;47970;52.396;9.586;2023-03-11T02:17:25;5.80;;;2.33;;
62014;SDS011;47970;52.396;9.586;2023-03-11T02:22:16;1.65;;;1.13;;
62014;SDS011;47970;52.396;9.586;2023-03-11T02:27:16;5.72;;;2.00;;
62014;SDS011;47970;52.396;9.586;2023-03-11T02:29:43;2.88;;;1.88;;
62014;SDS011;47970;52.396;9.586;2023-03-11T02:32:08;1.73;;;1.35;;
62014;SDS011;47970;52.396;9.586;2023-03-11T02:34:35;1.60;;;0.88;;
62014;SDS011;47970;52.396;9.586;2023-03-11T02:37:05;1.08;;;0.85;;
62014;SDS011;47970;52.396;9.586;2023-03-11T02:39:31;6.20;;;3.00;;
62014;SDS011;47970;52.396;9.586;2023-03-11T02:41:57;3.22;;;2.35;;
62014;SDS011;47970;52.396;9.586;2023-03-11T02:44:23;1.67;;;1.27;;
62014;SDS011;47970;52.396;9.586;2023-03-11T02:46:48;4.40;;;1.98;;
62014;SDS011;47970;52.396;9.586;2023-03-11T02:49:13;2.53;;;1.50;;
62014;SDS011;47970;52.396;9.586;2023-03-11T02:51:39;1.23;;;0.93;;
62014;SDS011;47970;52.396;9.586;2023-03-11T02:54:04;4.17;;;2.43;;
62014;SDS011;47970;52.396;9.586;2023-03-11T02:56:30;2.63;;;1.17;;
62014;SDS011;47970;52.396;9.586;2023-03-11T02:58:55;3.35;;;1.88;;
62014;SDS011;47970;52.396;9.586;2023-03-11T03:01:20;5.40;;;2.97;;
62014;SDS011;47970;52.396;9.586;2023-03-11T03:03:45;6.25;;;3.10;;
62014;SDS011;47970;52.396;9.586;2023-03-11T03:06:11;5.03;;;1.80;;
62014;SDS011;47970;52.396;9.586;2023-03-11T03:08:36;7.57;;;2.38;;
62014;SDS011;47970;52.396;9.586;2023-03-11T03:11:01;1.90;;;1.15;;
62014;SDS011;47970;52.396;9.586;2023-03-11T03:13:27;7.18;;;1.17;;
62014;SDS011;47970;52.396;9.586;2023-03-11T03:15:53;3.78;;;1.65;;
62014;SDS011;47970;52.396;9.586;2023-03-11T03:18:19;5.13;;;1.83;;
62014;SDS011;47970;52.396;9.586;2023-03-11T03:20:44;4.85;;;1.88;;
62014;SDS011;47970;52.396;9.586;2023-03-11T03:23:09;4.05;;;1.58;;
62014;SDS011;47970;52.396;9.586;2023-03-11T03:25:34;1.25;;;0.77;;
62014;SDS011;47970;52.396;9.586;2023-03-11T03:28:00;2.10;;;1.10;;
62014;SDS011;47970;52.396;9.586;2023-03-11T03:30:25;1.57;;;1.00;;
62014;SDS011;47970;52.396;9.586;2023-03-11T03:32:52;4.38;;;1.30;;
62014;SDS011;47970;52.396;9.586;2023-03-11T03:35:17;0.10;;;0.10;;
62014;SDS011;47970;52.396;9.586;2023-03-11T03:37:42;3.35;;;1.52;;
62014;SDS011;47970;52.396;9.586;2023-03-11T03:40:08;4.37;;;1.17;;
62014;SDS011;47970;52.396;9.586;2023-03-11T03:42:37;4.07;;;2.20;;
62014;SDS011;47970;52.396;9.586;2023-03-11T03:45:03;4.05;;;0.93;;
62014;SDS011;47970;52.396;9.586;2023-03-11T03:47:28;1.35;;;1.25;;
62014;SDS011;47970;52.396;9.586;2023-03-11T03:49:54;2.42;;;1.48;;
62014;SDS011;47970;52.396;9.586;2023-03-11T03:52:19;3.37;;;1.23;;
62014;SDS011;47970;52.396;9.586;2023-03-11T03:54:44;2.33;;;0.88;;
62014;SDS011;47970;52.396;9.586;2023-03-11T03:57:09;2.72;;;1.25;;
62014;SDS011;47970;52.396;9.586;2023-03-11T03:59:35;5.90;;;1.38;;
62014;SDS011;47970;52.396;9.586;2023-03-11T04:02:00;3.60;;;1.42;;
62014;SDS011;47970;52.396;9.586;2023-03-11T04:04:25;0.82;;;0.57;;
62014;SDS011;47970;52.396;9.586;2023-03-11T04:06:50;0.63;;;0.40;;
62014;SDS011;47970;52.396;9.586;2023-03-11T04:09:16;4.93;;;1.35;;
62014;SDS011;47970;52.396;9.586;2023-03-11T04:11:41;1.70;;;0.77;;
62014;SDS011;47970;52.396;9.586;2023-03-11T04:14:06;1.60;;;0.97;;
62014;SDS011;47970;52.396;9.586;2023-03-11T04:16:31;4.10;;;1.23;;
62014;SDS011;47970;52.396;9.586;2023-03-11T04:18:57;9.52;;;1.55;;
62014;SDS011;47970;52.396;9.586;2023-03-11T04:21:22;1.48;;;0.77;;
62014;SDS011;47970;52.396;9.586;2023-03-11T04:23:47;1.80;;;0.90;;
62014;SDS011;47970;52.396;9.586;2023-03-11T04:26:13;0.43;;;0.43;;
62014;SDS011;47970;52.396;9.586;2023-03-11T04:28:38;3.80;;;1.25;;
62014;SDS011;47970;52.396;9.586;2023-03-11T04:31:03;0.43;;;0.32;;
62014;SDS011;47970;52.396;9.586;2023-03-11T04:33:28;1.75;;;1.00;;
62014;SDS011;47970;52.396;9.586;2023-03-11T04:35:54;10.60;;;4.65;;
62014;SDS011;47970;52.396;9.586;2023-03-11T04:38:19;5.50;;;2.15;;
62014;SDS011;47970;52.396;9.586;2023-03-11T04:40:44;1.63;;;1.17;;
62014;SDS011;47970;52.396;9.586;2023-03-11T04:43:09;0.77;;;0.55;;
62014;SDS011;47970;52.396;9.586;2023-03-11T04:45:37;1.45;;;0.47;;
62014;SDS011;47970;52.396;9.586;2023-03-11T04:48:02;4.55;;;1.40;;
62014;SDS011;47970;52.396;9.586;2023-03-11T04:50:28;3.72;;;0.88;;
62014;SDS011;47970;52.396;9.586;2023-03-11T04:52:53;2.37;;;0.60;;
62014;SDS011;47970;52.396;9.586;2023-03-11T04:55:18;0.85;;;0.55;;
62014;SDS011;47970;52.396;9.586;2023-03-11T04:57:43;3.33;;;1.05;;
62014;SDS011;47970;52.396;9.586;2023-03-11T05:00:09;2.20;;;0.97;;
62014;SDS011;47970;52.396;9.586;2023-03-11T05:02:36;0.73;;;0.50;;
62014;SDS011;47970;52.396;9.586;2023-03-11T05:05:01;4.40;;;0.70;;
62014;SDS011;47970;52.396;9.586;2023-03-11T05:07:26;1.53;;;1.17;;
62014;SDS011;47970;52.396;9.586;2023-03-11T05:09:52;5.50;;;0.57;;
62014;SDS011;47970;52.396;9.586;2023-03-11T05:12:17;1.17;;;0.50;;
62014;SDS011;47970;52.396;9.586;2023-03-11T05:14:42;2.10;;;1.02;;
62014;SDS011;47970;52.396;9.586;2023-03-11T05:17:07;3.72;;;0.50;;
62014;SDS011;47970;52.396;9.586;2023-03-11T05:19:34;3.15;;;0.60;;
62014;SDS011;47970;52.396;9.586;2023-03-11T05:22:00;1.58;;;0.70;;
62014;SDS011;47970;52.396;9.586;2023-03-11T05:24:26;0.22;;;0.22;;
62014;SDS011;47970;52.396;9.586;2023-03-11T05:26:51;3.83;;;2.83;;
62014;SDS011;47970;52.396;9.586;2023-03-11T05:29:17;4.35;;;0.85;;
62014;SDS011;47970;52.396;9.586;2023-03-11T05:31:42;1.05;;;0.57;;
62014;SDS011;47970;52.396;9.586;2023-03-11T05:34:08;1.35;;;0.55;;
62014;SDS011;47970;52.396;9.586;2023-03-11T05:36:33;4.03;;;0.60;;
62014;SDS011;47970;52.396;9.586;2023-03-11T05:38:58;3.80;;;1.00;;
62014;SDS011;47970;52.396;9.586;2023-03-11T05:41:23;2.65;;;0.80;;
62014;SDS011;47970;52.396;9.586;2023-03-11T05:43:49;4.13;;;0.97;;
62014;SDS011;47970;52.396;9.586;2023-03-11T05:46:14;2.67;;;0.50;;
62014;SDS011;47970;52.396;9.586;2023-03-11T05:48:39;4.28;;;0.93;;
62014;SDS011;47970;52.396;9.586;2023-03-11T05:51:08;1.10;;;0.50;;
62014;SDS011;47970;52.396;9.586;2023-03-11T05:53:34;0.45;;;0.28;;
62014;SDS011;47970;52.396;9.586;2023-03-11T05:55:59;1.42;;;0.77;;
62014;SDS011;47970;52.396;9.586;2023-03-11T05:58:24;1.35;;;0.70;;
62014;SDS011;47970;52.396;9.586;2023-03-11T06:00:50;1.52;;;0.77;;
62014;SDS011;47970;52.396;9.586;2023-03-11T06:03:16;11.48;;;1.45;;
62014;SDS011;47970;52.396;9.586;2023-03-11T06:05:44;1.37;;;0.50;;
62014;SDS011;47970;52.396;9.586;2023-03-11T06:08:09;5.07;;;0.65;;
62014;SDS011;47970;52.396;9.586;2023-03-11T06:10:35;0.97;;;0.40;;
62014;SDS011;47970;52.396;9.586;2023-03-11T06:13:00;0.95;;;0.55;;
62014;SDS011;47970;52.396;9.586;2023-03-11T06:15:25;3.33;;;0.70;;
62014;SDS011;47970;52.396;9.586;2023-03-11T06:17:50;0.47;;;0.40;;
62014;SDS011;47970;52.396;9.586;2023-03-11T06:20:15;0.93;;;0.87;;
62014;SDS011;47970;52.396;9.586;2023-03-11T06:22:41;2.88;;;1.02;;
62014;SDS011;47970;52.396;9.586;2023-03-11T06:25:06;1.20;;;0.60;;
62014;SDS011;47970;52.396;9.586;2023-03-11T06:27:32;0.43;;;0.32;;
62014;SDS011;47970;52.396;9.586;2023-03-11T06:29:57;2.37;;;0.43;;
62014;SDS011;47970;52.396;9.586;2023-03-11T06:32:22;1.57;;;0.83;;
62014;SDS011;47970;52.396;9.586;2023-03-11T06:34:51;0.90;;;0.52;;
62014;SDS011;47970;52.396;9.586;2023-03-11T06:37:17;10.20;;;1.48;;
62014;SDS011;47970;52.396;9.586;2023-03-11T06:39:42;3.72;;;0.85;;
62014;SDS011;47970;52.396;9.586;2023-03-11T06:42:10;0.43;;;0.37;;
62014;SDS011;47970;52.396;9.586;2023-03-11T06:44:35;3.17;;;1.02;;
62014;SDS011;47970;52.396;9.586;2023-03-11T06:47:01;1.92;;;0.45;;
62014;SDS011;47970;52.396;9.586;2023-03-11T06:49:26;1.95;;;0.35;;
62014;SDS011;47970;52.396;9.586;2023-03-11T06:51:51;1.38;;;0.52;;
62014;SDS011;47970;52.396;9.586;2023-03-11T06:54:17;1.55;;;0.63;;
62014;SDS011;47970;52.396;9.586;2023-03-11T06:56:42;0.28;;;0.28;;
62014;SDS011;47970;52.396;9.586;2023-03-11T06:59:07;4.60;;;1.38;;
62014;SDS011;47970;52.396;9.586;2023-03-11T07:01:32;1.35;;;0.52;;
62014;SDS011;47970;52.396;9.586;2023-03-11T07:03:58;2.65;;;0.47;;
62014;SDS011;47970;52.396;9.586;2023-03-11T07:06:23;4.63;;;0.40;;
62014;SDS011;47970;52.396;9.586;2023-03-11T07:08:49;2.95;;;1.05;;
62014;SDS011;47970;52.396;9.586;2023-03-11T07:11:16;24.13;;;1.23;;
62014;SDS011;47970;52.396;9.586;2023-03-11T07:13:41;2.50;;;0.95;;
62014;SDS011;47970;52.396;9.586;2023-03-11T07:16:08;0.95;;;0.50;;
62014;SDS011;47970;52.396;9.586;2023-03-11T07:18:34;5.38;;;0.60;;
62014;SDS011;47970;52.396;9.586;2023-03-11T07:21:00;2.17;;;0.52;;
62014;SDS011;47970;52.396;9.586;2023-03-11T07:23:26;0.22;;;0.20;;
62014;SDS011;47970;52.396;9.586;2023-03-11T07:25:51;1.88;;;1.00;;
62014;SDS011;47970;52.396;9.586;2023-03-11T07:28:16;8.02;;;0.80;;
62014;SDS011;47970;52.396;9.586;2023-03-11T07:30:42;1.10;;;0.45;;
62014;SDS011;47970;52.396;9.586;2023-03-11T07:33:10;1.25;;;0.57;;
62014;SDS011;47970;52.396;9.586;2023-03-11T07:35:35;6.85;;;1.10;;
62014;SDS011;47970;52.396;9.586;2023-03-11T07:38:00;5.97;;;0.85;;
62014;SDS011;47970;52.396;9.586;2023-03-11T07:40:26;0.10;;;0.10;;
62014;SDS011;47970;52.396;9.586;2023-03-11T07:42:51;5.37;;;0.83;;
62014;SDS011;47970;52.396;9.586;2023-03-11T07:45:16;0.63;;;0.50;;
62014;SDS011;47970;52.396;9.586;2023-03-11T07:47:41;1.77;;;0.80;;
62014;SDS011;47970;52.396;9.586;2023-03-11T07:50:06;3.20;;;0.80;;
62014;SDS011;47970;52.396;9.586;2023-03-11T07:52:32;4.05;;;1.35;;
62014;SDS011;47970;52.396;9.586;2023-03-11T07:54:57;1.73;;;0.60;;
62014;SDS011;47970;52.396;9.586;2023-03-11T07:57:23;1.88;;;0.60;;
62014;SDS011;47970;52.396;9.586;2023-03-11T07:59:48;0.98;;;0.43;;
62014;SDS011;47970;52.396;9.586;2023-03-11T08:02:14;4.78;;;1.02;;
62014;SDS011;47970;52.396;9.586;2023-03-11T08:04:39;7.20;;;1.23;;
62014;SDS011;47970;52.396;9.586;2023-03-11T08:07:04;0.82;;;0.40;;
62014;SDS011;47970;52.396;9.586;2023-03-11T08:09:29;2.88;;;1.13;;
62014;SDS011;47970;52.396;9.586;2023-03-11T08:11:54;3.47;;;0.45;;
62014;SDS011;47970;52.396;9.586;2023-03-11T08:14:20;1.40;;;0.70;;
62014;SDS011;47970;52.396;9.586;2023-03-11T08:16:45;9.30;;;1.27;;
62014;SDS011;47970;52.396;9.586;2023-03-11T08:19:10;6.77;;;1.20;;
62014;SDS011;47970;52.396;9.586;2023-03-11T08:21:36;1.60;;;0.80;;
62014;SDS011;47970;52.396;9.586;2023-03-11T08:24:01;4.13;;;1.13;;
62014;SDS011;47970;52.396;9.586;2023-03-11T08:26:26;0.88;;;0.38;;
62014;SDS011;47970;52.396;9.586;2023-03-11T08:28:52;3.00;;;1.00;;
62014;SDS011;47970;52.396;9.586;2023-03-11T08:31:22;0.60;;;0.47;;
62014;SDS011;47970;52.396;9.586;2023-03-11T08:33:51;3.30;;;0.90;;
62014;SDS011;47970;52.396;9.586;2023-03-11T08:36:17;3.10;;;1.30;;
62014;SDS011;47970;52.396;9.586;2023-03-11T08:38:42;2.13;;;0.95;;
62014;SDS011;47970;52.396;9.586;2023-03-11T08:41:07;2.55;;;1.10;;
62014;SDS011;47970;52.396;9.586;2023-03-11T08:43:33;2.17;;;0.80;;
62014;SDS011;47970;52.396;9.586;2023-03-11T08:45:59;2.35;;;0.68;;
62014;SDS011;47970;52.396;9.586;2023-03-11T08:48:25;11.38;;;1.67;;
62014;SDS011;47970;52.396;9.586;2023-03-11T08:50:50;3.47;;;0.90;;
62014;SDS011;47970;52.396;9.586;2023-03-11T08:53:15;3.95;;;1.20;;
62014;SDS011;47970;52.396;9.586;2023-03-11T08:55:40;1.50;;;0.70;;
62014;SDS011;47970;52.396;9.586;2023-03-11T08:58:05;1.93;;;0.83;;
62014;SDS011;47970;52.396;9.586;2023-03-11T09:00:31;2.53;;;1.00;;
62014;SDS011;47970;52.396;9.586;2023-03-11T09:02:56;3.70;;;0.88;;
62014;SDS011;47970;52.396;9.586;2023-03-11T09:05:22;0.73;;;0.53;;
62014;SDS011;47970;52.396;9.586;2023-03-11T09:07:47;4.82;;;1.33;;
62014;SDS011;47970;52.396;9.586;2023-03-11T09:10:12;6.37;;;1.10;;
62014;SDS011;47970;52.396;9.586;2023-03-11T09:12:38;4.20;;;1.17;;
62014;SDS011;47970;52.396;9.586;2023-03-11T09:15:04;5.97;;;0.67;;
62014;SDS011;47970;52.396;9.586;2023-03-11T09:17:29;5.05;;;0.95;;
62014;SDS011;47970;52.396;9.586;2023-03-11T09:19:55;7.38;;;0.98;;
62014;SDS011;47970;52.396;9.586;2023-03-11T09:22:20;7.20;;;1.53;;
62014;SDS011;47970;52.396;9.586;2023-03-11T09:24:45;3.17;;;1.63;;
62014;SDS011;47970;52.396;9.586;2023-03-11T09:27:10;3.53;;;1.13;;
62014;SDS011;47970;52.396;9.586;2023-03-11T09:29:37;4.35;;;1.08;;
62014;SDS011;47970;52.396;9.586;2023-03-11T09:32:02;3.40;;;0.90;;
62014;SDS011;47970;52.396;9.586;2023-03-11T09:34:27;5.63;;;1.00;;
62014;SDS011;47970;52.396;9.586;2023-03-11T09:36:52;3.67;;;1.00;;
62014;SDS011;47970;52.396;9.586;2023-03-11T09:39:17;3.40;;;1.20;;
62014;SDS011;47970;52.396;9.586;2023-03-11T09:41:53;4.53;;;1.50;;
62014;SDS011;47970;52.396;9.586;2023-03-11T09:52:13;4.88;;;0.70;;
62014;SDS011;47970;52.396;9.586;2023-03-11T09:54:46;3.40;;;0.98;;
62014;SDS011;47970;52.396;9.586;2023-03-11T09:57:13;5.00;;;1.00;;
62014;SDS011;47970;52.396;9.586;2023-03-11T09:59:40;3.35;;;0.70;;
62014;SDS011;47970;52.396;9.586;2023-03-11T10:02:09;6.70;;;1.10;;
62014;SDS011;47970;52.396;9.586;2023-03-11T10:04:41;5.45;;;0.88;;
62014;SDS011;47970;52.396;9.586;2023-03-11T10:07:09;4.35;;;0.95;;
62014;SDS011;47970;52.396;9.586;2023-03-11T10:09:51;1.73;;;0.70;;
62014;SDS011;47970;52.396;9.586;2023-03-11T10:13:20;1.25;;;0.73;;
62014;SDS011;47970;52.396;9.586;2023-03-11T10:25:08;0.63;;;0.33;;
62014;SDS011;47970;52.396;9.586;2023-03-11T10:27:43;4.78;;;1.13;;
62014;SDS011;47970;52.396;9.586;2023-03-11T10:30:22;2.72;;;0.90;;
62014;SDS011;47970;52.396;9.586;2023-03-11T10:32:50;6.22;;;1.52;;
62014;SDS011;47970;52.396;9.586;2023-03-11T10:35:17;4.13;;;0.93;;
62014;SDS011;47970;52.396;9.586;2023-03-11T10:37:49;9.25;;;1.20;;
62014;SDS011;47970;52.396;9.586;2023-03-11T10:40:25;4.35;;;0.98;;
62014;SDS011;47970;52.396;9.586;2023-03-11T10:42:53;4.70;;;1.10;;
62014;SDS011;47970;52.396;9.586;2023-03-11T10:45:19;5.10;;;1.83;;
62014;SDS011;47970;52.396;9.586;2023-03-11T10:47:47;4.40;;;1.10;;
62014;SDS011;47970;52.396;9.586;2023-03-11T10:50:14;3.35;;;1.20;;
62014;SDS011;47970;52.396;9.586;2023-03-11T10:52:45;3.00;;;1.08;;
62014;SDS011;47970;52.396;9.586;2023-03-11T10:55:27;4.88;;;1.10;;
62014;SDS011;47970;52.396;9.586;2023-03-11T10:57:57;7.63;;;1.13;;
62014;SDS011;47970;52.396;9.586;2023-03-11T11:00:28;6.57;;;1.30;;
62014;SDS011;47970;52.396;9.586;2023-03-11T11:02:54;8.90;;;1.02;;
62014;SDS011;47970;52.396;9.586;2023-03-11T11:05:29;2.63;;;0.95;;
62014;SDS011;47970;52.396;9.586;2023-03-11T11:10:28;3.42;;;0.80;;
62014;SDS011;47970;52.396;9.586;2023-03-11T11:17:47;4.68;;;0.95;;
62014;SDS011;47970;52.396;9.586;2023-03-11T11:20:15;3.15;;;1.00;;
62014;SDS011;47970;52.396;9.586;2023-03-11T11:22:46;5.20;;;1.30;;
62014;SDS011;47970;52.396;9.586;2023-03-11T11:27:58;2.20;;;0.95;;
62014;SDS011;47970;52.396;9.586;2023-03-11T11:30:24;2.33;;;0.80;;
62014;SDS011;47970;52.396;9.586;2023-03-11T11:32:49;2.72;;;0.70;;
62014;SDS011;47970;52.396;9.586;2023-03-11T11:35:17;0.82;;;0.60;;
62014;SDS011;47970;52.396;9.586;2023-03-11T11:37:47;6.15;;;0.77;;
62014;SDS011;47970;52.396;9.586;2023-03-11T11:42:48;4.63;;;1.30;;
62014;SDS011;47970;52.396;9.586;2023-03-11T11:45:15;0.70;;;0.47;;
62014;SDS011;47970;52.396;9.586;2023-03-11T11:47:45;1.55;;;0.77;;
62014;SDS011;47970;52.396;9.586;2023-03-11T11:50:14;6.95;;;1.00;;
62014;SDS011;47970;52.396;9.586;2023-03-11T11:52:46;5.95;;;1.23;;
62014;SDS011;47970;52.396;9.586;2023-03-11T11:57:41;6.55;;;0.80;;
62014;SDS011;47970;52.396;9.586;2023-03-11T12:00:14;2.17;;;0.90;;
62014;SDS011;47970;52.396;9.586;2023-03-11T12:02:45;4.28;;;1.20;;
62014;SDS011;47970;52.396;9.586;2023-03-11T12:05:24;3.92;;;0.70;;
62014;SDS011;47970;52.396;9.586;2023-03-11T12:10:28;1.20;;;0.73;;
62014;SDS011;47970;52.396;9.586;2023-03-11T12:15:40;2.85;;;0.98;;
62014;SDS011;47970;52.396;9.586;2023-03-11T12:18:09;6.25;;;0.98;;
62014;SDS011;47970;52.396;9.586;2023-03-11T12:20:41;4.07;;;1.15;;
62014;SDS011;47970;52.396;9.586;2023-03-11T12:23:14;2.25;;;0.75;;
62014;SDS011;47970;52.396;9.586;2023-03-11T12:30:54;4.40;;;1.17;;
62014;SDS011;47970;52.396;9.586;2023-03-11T12:33:26;4.65;;;1.10;;
62014;SDS011;47970;52.396;9.586;2023-03-11T12:35:54;2.53;;;0.85;;
62014;SDS011;47970;52.396;9.586;2023-03-11T12:45:57;5.72;;;0.93;;
62014;SDS011;47970;52.396;9.586;2023-03-11T12:48:33;2.80;;;0.80;;
62014;SDS011;47970;52.396;9.586;2023-03-11T12:50:59;6.95;;;0.70;;
62014;SDS011;47970;52.396;9.586;2023-03-11T13:04:11;5.72;;;0.73;;
62014;SDS011;47970;52.396;9.586;2023-03-11T13:09:15;10.90;;;1.20;;
62014;SDS011;47970;52.396;9.586;2023-03-11T13:11:41;3.58;;;0.63;;
62014;SDS011;47970;52.396;9.586;2023-03-11T13:14:18;2.85;;;1.15;;
62014;SDS011;47970;52.396;9.586;2023-03-11T13:16:45;2.15;;;0.85;;
62014;SDS011;47970;52.396;9.586;2023-03-11T13:21:55;6.30;;;1.17;;
62014;SDS011;47970;52.396;9.586;2023-03-11T13:34:44;1.55;;;0.57;;
62014;SDS011;47970;52.396;9.586;2023-03-11T13:42:35;1.13;;;0.68;;
62014;SDS011;47970;52.396;9.586;2023-03-11T13:45:02;2.92;;;0.65;;
62014;SDS011;47970;52.396;9.586;2023-03-11T13:47:30;6.32;;;0.95;;
62014;SDS011;47970;52.396;9.586;2023-03-11T13:50:08;3.22;;;1.90;;
62014;SDS011;47970;52.396;9.586;2023-03-11T13:52:38;5.38;;;0.57;;
62014;SDS011;47970;52.396;9.586;2023-03-11T13:57:33;2.92;;;0.60;;
62014;SDS011;47970;52.396;9.586;2023-03-11T14:00:03;3.13;;;0.70;;
62014;SDS011;47970;52.396;9.586;2023-03-11T14:02:29;1.40;;;0.60;;
62014;SDS011;47970;52.396;9.586;2023-03-11T14:04:56;2.47;;;0.80;;
62014;SDS011;47970;52.396;9.586;2023-03-11T14:07:24;5.97;;;0.93;;
62014;SDS011;47970;52.396;9.586;2023-03-11T14:09:49;1.88;;;0.50;;
62014;SDS011;47970;52.396;9.586;2023-03-11T14:12:14;3.97;;;1.13;;
62014;SDS011;47970;52.396;9.586;2023-03-11T14:14:53;5.20;;;1.17;;
62014;SDS011;47970;52.396;9.586;2023-03-11T14:17:20;0.73;;;0.25;;
62014;SDS011;47970;52.396;9.586;2023-03-11T14:22:30;1.55;;;0.52;;
62014;SDS011;47970;52.396;9.586;2023-03-11T14:24:56;1.60;;;0.50;;
62014;SDS011;47970;52.396;9.586;2023-03-11T14:27:22;3.65;;;0.75;;
62014;SDS011;47970;52.396;9.586;2023-03-11T14:29:47;1.60;;;0.68;;
62014;SDS011;47970;52.396;9.586;2023-03-11T14:34:47;1.05;;;0.43;;
62014;SDS011;47970;52.396;9.586;2023-03-11T14:37:22;4.33;;;0.70;;
62014;SDS011;47970;52.396;9.586;2023-03-11T14:39:48;5.85;;;0.77;;
62014;SDS011;47970;52.396;9.586;2023-03-11T14:44:43;1.75;;;0.75;;
62014;SDS011;47970;52.396;9.586;2023-03-11T14:47:15;2.08;;;0.80;;
62014;SDS011;47970;52.396;9.586;2023-03-11T14:49:42;1.35;;;0.60;;
62014;SDS011;47970;52.396;9.586;2023-03-11T14:55:01;3.53;;;0.52;;
62014;SDS011;47970;52.396;9.586;2023-03-11T14:59:53;6.33;;;0.90;;
62014;SDS011;47970;52.396;9.586;2023-03-11T15:04:47;4.78;;;0.55;;
62014;SDS011;47970;52.396;9.586;2023-03-11T15:07:13;5.60;;;0.98;;
62014;SDS011;47970;52.396;9.586;2023-03-11T15:09:38;3.20;;;1.17;;
62014;SDS011;47970;52.396;9.586;2023-03-11T15:12:04;6.05;;;0.90;;
62014;SDS011;47970;52.396;9.586;2023-03-11T15:14:31;2.45;;;0.82;;
62014;SDS011;47970;52.396;9.586;2023-03-11T15:19:37;1.05;;;0.40;;
62014;SDS011;47970;52.396;9.586;2023-03-11T15:22:05;4.97;;;1.07;;
62014;SDS011;47970;52.396;9.586;2023-03-11T15:24:31;1.67;;;0.77;;
62014;SDS011;47970;52.396;9.586;2023-03-11T15:27:04;2.75;;;0.50;;
62014;SDS011;47970;52.396;9.586;2023-03-11T15:29:30;2.25;;;0.70;;
62014;SDS011;47970;52.396;9.586;2023-03-11T15:31:55;5.70;;;0.93;;
62014;SDS011;47970;52.396;9.586;2023-03-11T15:34:23;0.85;;;0.32;;
62014;SDS011;47970;52.396;9.586;2023-03-11T15:41:43;1.52;;;0.65;;
62014;SDS011;47970;52.396;9.586;2023-03-11T15:46:53;2.22;;;0.50;;
62014;SDS011;47970;52.396;9.586;2023-03-11T15:49:18;1.98;;;0.70;;
62014;SDS011;47970;52.396;9.586;2023-03-11T15:51:43;0.40;;;0.28;;
62014;SDS011;47970;52.396;9.586;2023-03-11T15:54:08;13.47;;;1.37;;
62014;SDS011;47970;52.396;9.586;2023-03-11T15:56:34;6.67;;;1.50;;
62014;SDS011;47970;52.396;9.586;2023-03-11T15:58:59;3.78;;;0.80;;
62014;SDS011;47970;52.396;9.586;2023-03-11T16:01:24;3.75;;;0.82;;
62014;SDS011;47970;52.396;9.586;2023-03-11T16:03:52;1.40;;;0.47;;
62014;SDS011;47970;52.396;9.586;2023-03-11T16:06:18;1.58;;;0.73;;
62014;SDS011;47970;52.396;9.586;2023-03-11T16:08:43;5.00;;;1.10;;
62014;SDS011;47970;52.396;9.586;2023-03-11T16:11:10;5.50;;;0.90;;
62014;SDS011;47970;52.396;9.586;2023-03-11T16:13:36;1.20;;;0.68;;
62014;SDS011;47970;52.396;9.586;2023-03-11T16:16:01;7.67;;;0.63;;
62014;SDS011;47970;52.396;9.586;2023-03-11T16:18:26;0.77;;;0.50;;
62014;SDS011;47970;52.396;9.586;2023-03-11T16:20:52;3.47;;;0.70;;
62014;SDS011;47970;52.396;9.586;2023-03-11T16:23:19;2.72;;;0.50;;
62014;SDS011;47970;52.396;9.586;2023-03-11T16:25:44;5.45;;;0.70;;
62014;SDS011;47970;52.396;9.586;2023-03-11T16:28:11;4.53;;;0.40;;
62014;SDS011;47970;52.396;9.586;2023-03-11T16:30:37;1.33;;;0.43;;
62014;SDS011;47970;52.396;9.586;2023-03-11T16:33:02;3.30;;;0.63;;
62014;SDS011;47970;52.396;9.586;2023-03-11T16:35:27;1.90;;;0.52;;
62014;SDS011;47970;52.396;9.586;2023-03-11T16:37:53;3.90;;;0.73;;
62014;SDS011;47970;52.396;9.586;2023-03-11T16:40:19;0.53;;;0.27;;
62014;SDS011;47970;52.396;9.586;2023-03-11T16:42:45;1.35;;;0.60;;